sensor_id;sensor_type;location;lat;lon;timestamp;temperature;humidity
31765;DHT22;18338;53.240;8.798;2023-12-14T00:00:53;4.20;99.90
31765;DHT22;18338;53.240;8.798;2023-12-14T00:03:20;4.10;99.90
31765;DHT22;18338;53.240;8.798;2023-12-14T00:05:47;4.20;99.90
31765;DHT22;18338;53.240;8.798;2023-12-14T00:08:13;4.20;99.90
31765;DHT22;18338;53.240;8.798;2023-12-14T00:10:40;4.10;99.90
31765;DHT22;18338;53.240;8.798;2023-12-14T00:13:07;4.10;99.90
31765;DHT22;18338;53.240;8.798;2023-12-14T00:15:34;4.20;99.90
31765;DHT22;18338;53.240;8.798;2023-12-14T00:18:01;4.20;99.90
31765;DHT22;18338;53.240;8.798;2023-12-14T00:20:28;4.20;99.90
31765;DHT22;18338;53.240;8.798;2023-12-14T00:22:54;4.20;99.90
31765;DHT22;18338;53.240;8.798;2023-12-14T00:25:21;4.10;99.90
31765;DHT22;18338;53.240;8.798;2023-12-14T00:27:48;4.10;99.90
31765;DHT22;18338;53.240;8.798;2023-12-14T00:30:15;4.10;99.90
31765;DHT22;18338;53.240;8.798;2023-12-14T00:32:42;4.10;99.90
31765;DHT22;18338;53.240;8.798;2023-12-14T00:35:09;4.10;99.90
31765;DHT22;18338;53.240;8.798;2023-12-14T00:37:36;4.10;99.90
31765;DHT22;18338;53.240;8.798;2023-12-14T00:40:02;4.10;99.90
31765;DHT22;18338;53.240;8.798;2023-12-14T00:42:30;4.20;99.90
31765;DHT22;18338;53.240;8.798;2023-12-14T00:45:01;4.10;99.90
31765;DHT22;18338;53.240;8.798;2023-12-14T00:47:28;4.10;99.90
31765;DHT22;18338;53.240;8.798;2023-12-14T00:49:55;4.10;99.90
31765;DHT22;18338;53.240;8.798;2023-12-14T00:52:21;4.00;99.90
31765;DHT22;18338;53.240;8.798;2023-12-14T00:54:48;3.90;99.90
31765;DHT22;18338;53.240;8.798;2023-12-14T00:57:15;3.80;99.90
31765;DHT22;18338;53.240;8.798;2023-12-14T00:59:42;3.90;99.90
31765;DHT22;18338;53.240;8.798;2023-12-14T01:02:13;3.80;99.90
31765;DHT22;18338;53.240;8.798;2023-12-14T01:04:44;3.80;99.90
31765;DHT22;18338;53.240;8.798;2023-12-14T01:07:20;3.70;99.90
31765;DHT22;18338;53.240;8.798;2023-12-14T01:09:47;3.70;99.90
31765;DHT22;18338;53.240;8.798;2023-12-14T01:12:13;3.70;99.90
31765;DHT22;18338;53.240;8.798;2023-12-14T01:14:40;3.70;99.90
31765;DHT22;18338;53.240;8.798;2023-12-14T01:17:07;3.70;99.90
31765;DHT22;18338;53.240;8.798;2023-12-14T01:19:34;3.90;99.90
31765;DHT22;18338;53.240;8.798;2023-12-14T01:22:00;3.80;99.90
31765;DHT22;18338;53.240;8.798;2023-12-14T01:24:27;3.90;99.90
31765;DHT22;18338;53.240;8.798;2023-12-14T01:26:54;3.90;99.90
31765;DHT22;18338;53.240;8.798;2023-12-14T01:29:22;3.90;99.90
31765;DHT22;18338;53.240;8.798;2023-12-14T01:31:49;4.00;99.90
31765;DHT22;18338;53.240;8.798;2023-12-14T01:34:17;4.00;99.90
31765;DHT22;18338;53.240;8.798;2023-12-14T01:36:44;4.00;99.90
31765;DHT22;18338;53.240;8.798;2023-12-14T01:39:20;4.00;99.90
31765;DHT22;18338;53.240;8.798;2023-12-14T01:41:50;4.10;99.90
31765;DHT22;18338;53.240;8.798;2023-12-14T01:44:26;4.10;99.90
31765;DHT22;18338;53.240;8.798;2023-12-14T01:47:01;4.00;99.90
31765;DHT22;18338;53.240;8.798;2023-12-14T01:49:28;3.80;99.90
31765;DHT22;18338;53.240;8.798;2023-12-14T01:51:59;3.70;99.90
31765;DHT22;18338;53.240;8.798;2023-12-14T01:54:26;3.70;99.90
31765;DHT22;18338;53.240;8.798;2023-12-14T01:56:54;3.70;99.90
31765;DHT22;18338;53.240;8.798;2023-12-14T01:59:28;3.70;99.90
31765;DHT22;18338;53.240;8.798;2023-12-14T02:01:58;3.80;99.90
31765;DHT22;18338;53.240;8.798;2023-12-14T02:04:27;3.80;99.90
31765;DHT22;18338;53.240;8.798;2023-12-14T02:06:54;3.70;99.90
31765;DHT22;18338;53.240;8.798;2023-12-14T02:09:21;3.80;99.90
31765;DHT22;18338;53.240;8.798;2023-12-14T02:11:48;3.80;99.90
31765;DHT22;18338;53.240;8.798;2023-12-14T02:14:15;3.90;99.90
31765;DHT22;18338;53.240;8.798;2023-12-14T02:16:42;3.90;99.90
31765;DHT22;18338;53.240;8.798;2023-12-14T02:19:08;3.90;99.90
31765;DHT22;18338;53.240;8.798;2023-12-14T02:21:35;3.90;99.90
31765;DHT22;18338;53.240;8.798;2023-12-14T02:24:02;3.90;99.90
31765;DHT22;18338;53.240;8.798;2023-12-14T02:26:29;3.90;99.90
31765;DHT22;18338;53.240;8.798;2023-12-14T02:28:56;3.90;99.90
31765;DHT22;18338;53.240;8.798;2023-12-14T02:31:22;4.00;99.90
31765;DHT22;18338;53.240;8.798;2023-12-14T02:33:49;4.00;99.90
31765;DHT22;18338;53.240;8.798;2023-12-14T02:36:16;4.00;99.90
31765;DHT22;18338;53.240;8.798;2023-12-14T02:38:43;4.00;99.90
31765;DHT22;18338;53.240;8.798;2023-12-14T02:41:10;4.00;99.90
31765;DHT22;18338;53.240;8.798;2023-12-14T02:43:37;4.00;99.90
31765;DHT22;18338;53.240;8.798;2023-12-14T02:46:05;4.00;99.90
31765;DHT22;18338;53.240;8.798;2023-12-14T02:48:31;4.00;99.90
31765;DHT22;18338;53.240;8.798;2023-12-14T02:50:59;4.10;99.90
31765;DHT22;18338;53.240;8.798;2023-12-14T02:53:28;4.10;99.90
31765;DHT22;18338;53.240;8.798;2023-12-14T02:55:55;4.10;99.90
31765;DHT22;18338;53.240;8.798;2023-12-14T02:58:22;4.10;99.90
31765;DHT22;18338;53.240;8.798;2023-12-14T03:00:49;4.10;99.90
31765;DHT22;18338;53.240;8.798;2023-12-14T03:03:16;4.10;99.90
31765;DHT22;18338;53.240;8.798;2023-12-14T03:06:03;4.10;99.90
31765;DHT22;18338;53.240;8.798;2023-12-14T03:08:33;4.10;99.90
31765;DHT22;18338;53.240;8.798;2023-12-14T03:11:08;4.10;99.90
31765;DHT22;18338;53.240;8.798;2023-12-14T03:14:02;3.90;99.90
31765;DHT22;18338;53.240;8.798;2023-12-14T03:16:50;3.90;99.90
31765;DHT22;18338;53.240;8.798;2023-12-14T03:19:28;3.90;99.90
31765;DHT22;18338;53.240;8.798;2023-12-14T03:22:01;3.90;99.90
31765;DHT22;18338;53.240;8.798;2023-12-14T03:24:51;4.00;99.90
31765;DHT22;18338;53.240;8.798;2023-12-14T03:27:27;4.00;99.90
31765;DHT22;18338;53.240;8.798;2023-12-14T03:29:54;4.10;99.90
31765;DHT22;18338;53.240;8.798;2023-12-14T03:32:20;4.10;99.90
31765;DHT22;18338;53.240;8.798;2023-12-14T03:34:47;4.20;99.90
31765;DHT22;18338;53.240;8.798;2023-12-14T03:37:14;4.30;99.90
31765;DHT22;18338;53.240;8.798;2023-12-14T03:39:41;4.30;99.90
31765;DHT22;18338;53.240;8.798;2023-12-14T03:42:07;4.30;99.90
31765;DHT22;18338;53.240;8.798;2023-12-14T03:44:34;4.30;99.90
31765;DHT22;18338;53.240;8.798;2023-12-14T03:47:01;4.30;99.90
31765;DHT22;18338;53.240;8.798;2023-12-14T03:49:28;4.30;99.90
31765;DHT22;18338;53.240;8.798;2023-12-14T03:51:54;4.30;99.90
31765;DHT22;18338;53.240;8.798;2023-12-14T03:54:21;4.40;99.90
31765;DHT22;18338;53.240;8.798;2023-12-14T03:56:48;4.30;99.90
31765;DHT22;18338;53.240;8.798;2023-12-14T03:59:15;4.30;99.90
31765;DHT22;18338;53.240;8.798;2023-12-14T04:01:42;4.40;99.90
31765;DHT22;18338;53.240;8.798;2023-12-14T04:04:08;4.30;99.90
31765;DHT22;18338;53.240;8.798;2023-12-14T04:06:35;4.40;99.90
31765;DHT22;18338;53.240;8.798;2023-12-14T04:09:02;4.40;99.90
31765;DHT22;18338;53.240;8.798;2023-12-14T04:11:29;4.40;99.90
31765;DHT22;18338;53.240;8.798;2023-12-14T04:13:55;4.40;99.90
31765;DHT22;18338;53.240;8.798;2023-12-14T04:16:23;4.40;99.90
31765;DHT22;18338;53.240;8.798;2023-12-14T04:18:52;4.40;99.90
31765;DHT22;18338;53.240;8.798;2023-12-14T04:21:19;4.40;99.90
31765;DHT22;18338;53.240;8.798;2023-12-14T04:23:45;4.40;99.90
31765;DHT22;18338;53.240;8.798;2023-12-14T04:26:12;4.40;99.90
31765;DHT22;18338;53.240;8.798;2023-12-14T04:28:40;4.40;99.90
31765;DHT22;18338;53.240;8.798;2023-12-14T04:31:10;4.50;99.90
31765;DHT22;18338;53.240;8.798;2023-12-14T04:33:37;4.40;99.90
31765;DHT22;18338;53.240;8.798;2023-12-14T04:36:04;4.50;99.90
31765;DHT22;18338;53.240;8.798;2023-12-14T04:38:40;4.40;99.90
31765;DHT22;18338;53.240;8.798;2023-12-14T04:41:06;4.40;99.90
31765;DHT22;18338;53.240;8.798;2023-12-14T04:43:33;4.40;99.90
31765;DHT22;18338;53.240;8.798;2023-12-14T04:46:00;4.40;99.90
31765;DHT22;18338;53.240;8.798;2023-12-14T04:48:27;4.40;99.90
31765;DHT22;18338;53.240;8.798;2023-12-14T04:50:54;4.40;99.90
31765;DHT22;18338;53.240;8.798;2023-12-14T04:53:20;4.40;99.90
31765;DHT22;18338;53.240;8.798;2023-12-14T04:55:47;4.40;99.90
31765;DHT22;18338;53.240;8.798;2023-12-14T04:58:14;4.40;99.90
31765;DHT22;18338;53.240;8.798;2023-12-14T05:00:41;4.50;99.90
31765;DHT22;18338;53.240;8.798;2023-12-14T05:03:08;4.40;99.90
31765;DHT22;18338;53.240;8.798;2023-12-14T05:05:34;4.40;99.90
31765;DHT22;18338;53.240;8.798;2023-12-14T05:08:01;4.40;99.90
31765;DHT22;18338;53.240;8.798;2023-12-14T05:10:41;4.40;99.90
31765;DHT22;18338;53.240;8.798;2023-12-14T05:13:08;4.40;99.90
31765;DHT22;18338;53.240;8.798;2023-12-14T05:15:38;4.40;99.90
31765;DHT22;18338;53.240;8.798;2023-12-14T05:18:05;4.40;99.90
31765;DHT22;18338;53.240;8.798;2023-12-14T05:20:32;4.40;99.90
31765;DHT22;18338;53.240;8.798;2023-12-14T05:22:59;4.40;99.90
31765;DHT22;18338;53.240;8.798;2023-12-14T05:25:26;4.40;99.90
31765;DHT22;18338;53.240;8.798;2023-12-14T05:27:53;4.40;99.90
31765;DHT22;18338;53.240;8.798;2023-12-14T05:30:19;4.40;99.90
31765;DHT22;18338;53.240;8.798;2023-12-14T05:32:46;4.40;99.90
31765;DHT22;18338;53.240;8.798;2023-12-14T05:35:13;4.40;99.90
31765;DHT22;18338;53.240;8.798;2023-12-14T05:37:40;4.40;99.90
31765;DHT22;18338;53.240;8.798;2023-12-14T05:40:09;4.40;99.90
31765;DHT22;18338;53.240;8.798;2023-12-14T05:42:36;4.40;99.90
31765;DHT22;18338;53.240;8.798;2023-12-14T05:45:05;4.40;99.90
31765;DHT22;18338;53.240;8.798;2023-12-14T05:47:35;4.40;99.90
31765;DHT22;18338;53.240;8.798;2023-12-14T05:50:03;4.40;99.90
31765;DHT22;18338;53.240;8.798;2023-12-14T05:52:30;4.40;99.90
31765;DHT22;18338;53.240;8.798;2023-12-14T05:54:57;4.40;99.90
31765;DHT22;18338;53.240;8.798;2023-12-14T05:57:30;4.40;99.90
31765;DHT22;18338;53.240;8.798;2023-12-14T05:59:56;4.40;99.90
31765;DHT22;18338;53.240;8.798;2023-12-14T06:02:23;4.40;99.90
31765;DHT22;18338;53.240;8.798;2023-12-14T06:04:50;4.40;99.90
31765;DHT22;18338;53.240;8.798;2023-12-14T06:07:17;4.40;99.90
31765;DHT22;18338;53.240;8.798;2023-12-14T06:09:44;4.40;99.90
31765;DHT22;18338;53.240;8.798;2023-12-14T06:12:11;4.40;99.90
31765;DHT22;18338;53.240;8.798;2023-12-14T06:14:37;4.40;99.90
31765;DHT22;18338;53.240;8.798;2023-12-14T06:17:04;4.40;99.90
31765;DHT22;18338;53.240;8.798;2023-12-14T06:19:31;4.40;99.90
31765;DHT22;18338;53.240;8.798;2023-12-14T06:21:59;4.50;99.90
31765;DHT22;18338;53.240;8.798;2023-12-14T06:24:25;4.40;99.90
31765;DHT22;18338;53.240;8.798;2023-12-14T06:26:52;4.50;99.90
31765;DHT22;18338;53.240;8.798;2023-12-14T06:29:19;4.50;99.90
31765;DHT22;18338;53.240;8.798;2023-12-14T06:31:46;4.50;99.90
31765;DHT22;18338;53.240;8.798;2023-12-14T06:34:13;4.50;99.90
31765;DHT22;18338;53.240;8.798;2023-12-14T06:36:44;4.50;99.90
31765;DHT22;18338;53.240;8.798;2023-12-14T06:39:11;4.40;99.90
31765;DHT22;18338;53.240;8.798;2023-12-14T06:41:38;4.50;99.90
31765;DHT22;18338;53.240;8.798;2023-12-14T06:44:05;4.40;99.90
31765;DHT22;18338;53.240;8.798;2023-12-14T06:46:32;4.40;99.90
31765;DHT22;18338;53.240;8.798;2023-12-14T06:48:59;4.50;99.90
31765;DHT22;18338;53.240;8.798;2023-12-14T06:51:26;4.50;99.90
31765;DHT22;18338;53.240;8.798;2023-12-14T06:53:53;4.50;99.90
31765;DHT22;18338;53.240;8.798;2023-12-14T06:56:20;4.50;99.90
31765;DHT22;18338;53.240;8.798;2023-12-14T06:58:46;4.50;99.90
31765;DHT22;18338;53.240;8.798;2023-12-14T07:01:16;4.50;99.90
31765;DHT22;18338;53.240;8.798;2023-12-14T07:03:46;4.50;99.90
31765;DHT22;18338;53.240;8.798;2023-12-14T07:06:15;4.40;99.90
31765;DHT22;18338;53.240;8.798;2023-12-14T07:08:43;4.50;99.90
31765;DHT22;18338;53.240;8.798;2023-12-14T07:11:10;4.40;99.90
31765;DHT22;18338;53.240;8.798;2023-12-14T07:13:38;4.40;99.90
31765;DHT22;18338;53.240;8.798;2023-12-14T07:16:07;4.50;99.90
31765;DHT22;18338;53.240;8.798;2023-12-14T07:18:37;4.40;99.90
31765;DHT22;18338;53.240;8.798;2023-12-14T07:21:05;4.40;99.90
31765;DHT22;18338;53.240;8.798;2023-12-14T07:23:33;4.40;99.90
31765;DHT22;18338;53.240;8.798;2023-12-14T07:26:00;4.40;99.90
31765;DHT22;18338;53.240;8.798;2023-12-14T07:28:30;4.40;99.90
31765;DHT22;18338;53.240;8.798;2023-12-14T07:30:57;4.40;99.90
31765;DHT22;18338;53.240;8.798;2023-12-14T07:33:24;4.40;99.90
31765;DHT22;18338;53.240;8.798;2023-12-14T07:35:51;4.40;99.90
31765;DHT22;18338;53.240;8.798;2023-12-14T07:38:18;4.40;99.90
31765;DHT22;18338;53.240;8.798;2023-12-14T07:40:45;4.40;99.90
31765;DHT22;18338;53.240;8.798;2023-12-14T07:43:13;4.50;99.90
31765;DHT22;18338;53.240;8.798;2023-12-14T07:45:40;4.40;99.90
31765;DHT22;18338;53.240;8.798;2023-12-14T07:48:07;4.40;99.90
31765;DHT22;18338;53.240;8.798;2023-12-14T07:50:34;4.50;99.90
31765;DHT22;18338;53.240;8.798;2023-12-14T07:53:01;4.50;99.90
31765;DHT22;18338;53.240;8.798;2023-12-14T07:55:28;4.50;99.90
31765;DHT22;18338;53.240;8.798;2023-12-14T07:57:55;4.50;99.90
31765;DHT22;18338;53.240;8.798;2023-12-14T08:00:22;4.50;99.90
31765;DHT22;18338;53.240;8.798;2023-12-14T08:02:49;4.50;99.90
31765;DHT22;18338;53.240;8.798;2023-12-14T08:05:15;4.60;99.90
31765;DHT22;18338;53.240;8.798;2023-12-14T08:07:42;4.60;99.90
31765;DHT22;18338;53.240;8.798;2023-12-14T08:10:09;4.60;99.90
31765;DHT22;18338;53.240;8.798;2023-12-14T08:12:36;4.60;99.90
31765;DHT22;18338;53.240;8.798;2023-12-14T08:15:04;4.60;99.90
31765;DHT22;18338;53.240;8.798;2023-12-14T08:17:31;4.70;99.90
31765;DHT22;18338;53.240;8.798;2023-12-14T08:19:58;4.70;99.90
31765;DHT22;18338;53.240;8.798;2023-12-14T08:22:25;4.70;99.90
31765;DHT22;18338;53.240;8.798;2023-12-14T08:24:52;4.70;99.90
31765;DHT22;18338;53.240;8.798;2023-12-14T08:27:21;4.80;99.90
31765;DHT22;18338;53.240;8.798;2023-12-14T08:29:50;4.80;99.90
31765;DHT22;18338;53.240;8.798;2023-12-14T08:32:17;4.80;99.90
31765;DHT22;18338;53.240;8.798;2023-12-14T08:34:44;4.90;99.90
31765;DHT22;18338;53.240;8.798;2023-12-14T08:37:11;4.90;99.90
31765;DHT22;18338;53.240;8.798;2023-12-14T08:39:38;5.00;99.90
31765;DHT22;18338;53.240;8.798;2023-12-14T08:42:05;5.00;99.90
31765;DHT22;18338;53.240;8.798;2023-12-14T08:44:32;5.00;99.90
31765;DHT22;18338;53.240;8.798;2023-12-14T08:46:59;5.00;99.90
31765;DHT22;18338;53.240;8.798;2023-12-14T08:49:26;5.00;99.90
31765;DHT22;18338;53.240;8.798;2023-12-14T08:51:52;5.10;99.90
31765;DHT22;18338;53.240;8.798;2023-12-14T08:54:20;5.10;99.90
31765;DHT22;18338;53.240;8.798;2023-12-14T08:56:46;5.10;99.90
31765;DHT22;18338;53.240;8.798;2023-12-14T08:59:14;5.10;99.90
31765;DHT22;18338;53.240;8.798;2023-12-14T09:01:41;5.20;99.90
31765;DHT22;18338;53.240;8.798;2023-12-14T09:04:08;5.20;99.90
31765;DHT22;18338;53.240;8.798;2023-12-14T09:06:34;5.30;99.90
31765;DHT22;18338;53.240;8.798;2023-12-14T09:09:01;5.30;99.90
31765;DHT22;18338;53.240;8.798;2023-12-14T09:11:36;5.30;99.90
31765;DHT22;18338;53.240;8.798;2023-12-14T09:14:41;5.40;99.90
31765;DHT22;18338;53.240;8.798;2023-12-14T09:17:08;5.40;99.90
31765;DHT22;18338;53.240;8.798;2023-12-14T09:19:35;5.60;99.90
31765;DHT22;18338;53.240;8.798;2023-12-14T09:22:02;5.60;99.90
31765;DHT22;18338;53.240;8.798;2023-12-14T09:24:29;5.70;99.90
31765;DHT22;18338;53.240;8.798;2023-12-14T09:26:56;5.80;99.90
31765;DHT22;18338;53.240;8.798;2023-12-14T09:29:25;5.80;99.90
31765;DHT22;18338;53.240;8.798;2023-12-14T09:31:52;5.80;99.90
31765;DHT22;18338;53.240;8.798;2023-12-14T09:34:19;5.80;99.90
31765;DHT22;18338;53.240;8.798;2023-12-14T09:36:46;5.90;99.90
31765;DHT22;18338;53.240;8.798;2023-12-14T09:39:13;5.90;99.90
31765;DHT22;18338;53.240;8.798;2023-12-14T09:41:41;5.90;99.90
31765;DHT22;18338;53.240;8.798;2023-12-14T09:44:08;5.90;99.90
31765;DHT22;18338;53.240;8.798;2023-12-14T09:46:37;5.90;99.90
31765;DHT22;18338;53.240;8.798;2023-12-14T09:49:05;6.00;99.90
31765;DHT22;18338;53.240;8.798;2023-12-14T09:51:34;6.10;99.90
31765;DHT22;18338;53.240;8.798;2023-12-14T09:54:01;6.30;99.90
31765;DHT22;18338;53.240;8.798;2023-12-14T09:56:29;6.30;99.90
31765;DHT22;18338;53.240;8.798;2023-12-14T09:58:57;6.40;99.90
31765;DHT22;18338;53.240;8.798;2023-12-14T10:01:26;6.50;99.90
31765;DHT22;18338;53.240;8.798;2023-12-14T10:04:10;6.40;99.90
31765;DHT22;18338;53.240;8.798;2023-12-14T10:06:39;6.40;99.90
31765;DHT22;18338;53.240;8.798;2023-12-14T10:09:06;6.30;99.90
31765;DHT22;18338;53.240;8.798;2023-12-14T10:11:40;6.40;99.90
31765;DHT22;18338;53.240;8.798;2023-12-14T10:14:24;6.60;99.90
31765;DHT22;18338;53.240;8.798;2023-12-14T10:16:52;6.60;99.90
31765;DHT22;18338;53.240;8.798;2023-12-14T10:19:28;6.50;99.90
31765;DHT22;18338;53.240;8.798;2023-12-14T10:21:55;6.50;99.90
31765;DHT22;18338;53.240;8.798;2023-12-14T10:24:22;6.50;99.90
31765;DHT22;18338;53.240;8.798;2023-12-14T10:26:50;6.50;99.90
31765;DHT22;18338;53.240;8.798;2023-12-14T10:29:17;6.50;99.90
31765;DHT22;18338;53.240;8.798;2023-12-14T10:31:44;6.50;99.90
31765;DHT22;18338;53.240;8.798;2023-12-14T10:34:12;6.50;99.90
31765;DHT22;18338;53.240;8.798;2023-12-14T10:36:40;6.50;99.90
31765;DHT22;18338;53.240;8.798;2023-12-14T10:39:14;6.40;99.90
31765;DHT22;18338;53.240;8.798;2023-12-14T10:41:45;6.40;99.90
31765;DHT22;18338;53.240;8.798;2023-12-14T10:44:27;6.30;99.90
31765;DHT22;18338;53.240;8.798;2023-12-14T10:47:17;6.40;99.90
31765;DHT22;18338;53.240;8.798;2023-12-14T10:49:50;6.40;99.90
31765;DHT22;18338;53.240;8.798;2023-12-14T10:52:19;6.30;99.90
31765;DHT22;18338;53.240;8.798;2023-12-14T10:54:52;6.30;99.90
31765;DHT22;18338;53.240;8.798;2023-12-14T10:57:19;6.30;99.90
31765;DHT22;18338;53.240;8.798;2023-12-14T10:59:49;6.40;99.90
31765;DHT22;18338;53.240;8.798;2023-12-14T11:02:17;6.50;99.90
31765;DHT22;18338;53.240;8.798;2023-12-14T11:05:02;6.60;99.90
31765;DHT22;18338;53.240;8.798;2023-12-14T11:07:53;6.70;99.90
31765;DHT22;18338;53.240;8.798;2023-12-14T11:10:29;6.60;99.90
31765;DHT22;18338;53.240;8.798;2023-12-14T11:13:03;6.50;99.90
31765;DHT22;18338;53.240;8.798;2023-12-14T11:15:30;6.60;99.90
31765;DHT22;18338;53.240;8.798;2023-12-14T11:23:16;6.60;99.90
31765;DHT22;18338;53.240;8.798;2023-12-14T11:25:52;6.60;99.90
31765;DHT22;18338;53.240;8.798;2023-12-14T11:28:25;6.70;99.90
31765;DHT22;18338;53.240;8.798;2023-12-14T11:30:54;6.80;99.90
31765;DHT22;18338;53.240;8.798;2023-12-14T11:33:23;6.90;99.90
31765;DHT22;18338;53.240;8.798;2023-12-14T11:35:51;7.00;99.90
31765;DHT22;18338;53.240;8.798;2023-12-14T11:38:22;7.00;99.90
31765;DHT22;18338;53.240;8.798;2023-12-14T11:40:50;7.00;99.90
31765;DHT22;18338;53.240;8.798;2023-12-14T11:43:17;7.00;99.90
31765;DHT22;18338;53.240;8.798;2023-12-14T11:45:48;7.00;99.90
31765;DHT22;18338;53.240;8.798;2023-12-14T11:48:15;7.10;99.90
31765;DHT22;18338;53.240;8.798;2023-12-14T11:50:43;7.20;99.90
31765;DHT22;18338;53.240;8.798;2023-12-14T11:53:11;7.30;99.90
31765;DHT22;18338;53.240;8.798;2023-12-14T11:55:40;7.20;99.90
31765;DHT22;18338;53.240;8.798;2023-12-14T11:58:07;7.00;99.90
31765;DHT22;18338;53.240;8.798;2023-12-14T12:00:34;6.80;99.90
31765;DHT22;18338;53.240;8.798;2023-12-14T12:03:08;6.90;99.90
31765;DHT22;18338;53.240;8.798;2023-12-14T12:05:46;6.90;99.90
31765;DHT22;18338;53.240;8.798;2023-12-14T12:08:15;7.00;99.90
31765;DHT22;18338;53.240;8.798;2023-12-14T12:10:43;6.90;99.90
31765;DHT22;18338;53.240;8.798;2023-12-14T12:13:18;7.10;99.90
31765;DHT22;18338;53.240;8.798;2023-12-14T12:15:46;7.10;99.90
31765;DHT22;18338;53.240;8.798;2023-12-14T12:18:15;7.10;99.90
31765;DHT22;18338;53.240;8.798;2023-12-14T12:20:45;7.10;99.90
31765;DHT22;18338;53.240;8.798;2023-12-14T12:23:13;7.00;99.90
31765;DHT22;18338;53.240;8.798;2023-12-14T12:25:40;7.10;99.90
31765;DHT22;18338;53.240;8.798;2023-12-14T12:28:07;7.20;99.90
31765;DHT22;18338;53.240;8.798;2023-12-14T12:30:34;7.10;99.90
31765;DHT22;18338;53.240;8.798;2023-12-14T12:33:05;7.20;99.90
31765;DHT22;18338;53.240;8.798;2023-12-14T12:35:33;7.20;99.90
31765;DHT22;18338;53.240;8.798;2023-12-14T12:38:00;7.30;99.90
31765;DHT22;18338;53.240;8.798;2023-12-14T12:40:28;7.30;99.90
31765;DHT22;18338;53.240;8.798;2023-12-14T12:42:57;7.00;99.90
31765;DHT22;18338;53.240;8.798;2023-12-14T12:45:24;7.00;99.90
31765;DHT22;18338;53.240;8.798;2023-12-14T12:47:54;7.10;99.90
31765;DHT22;18338;53.240;8.798;2023-12-14T12:50:30;7.20;99.90
31765;DHT22;18338;53.240;8.798;2023-12-14T12:52:57;7.30;99.90
31765;DHT22;18338;53.240;8.798;2023-12-14T12:55:24;7.20;99.90
31765;DHT22;18338;53.240;8.798;2023-12-14T12:57:51;7.20;99.90
31765;DHT22;18338;53.240;8.798;2023-12-14T13:00:18;7.20;99.90
31765;DHT22;18338;53.240;8.798;2023-12-14T13:02:45;7.30;99.90
31765;DHT22;18338;53.240;8.798;2023-12-14T13:05:12;7.20;99.90
31765;DHT22;18338;53.240;8.798;2023-12-14T13:07:45;7.10;99.90
31765;DHT22;18338;53.240;8.798;2023-12-14T13:10:13;7.10;99.90
31765;DHT22;18338;53.240;8.798;2023-12-14T13:12:56;7.10;99.90
31765;DHT22;18338;53.240;8.798;2023-12-14T13:15:23;7.10;99.90
31765;DHT22;18338;53.240;8.798;2023-12-14T13:17:55;7.20;99.90
31765;DHT22;18338;53.240;8.798;2023-12-14T13:20:23;7.20;99.90
31765;DHT22;18338;53.240;8.798;2023-12-14T13:22:50;7.00;99.90
31765;DHT22;18338;53.240;8.798;2023-12-14T13:25:17;7.00;99.90
31765;DHT22;18338;53.240;8.798;2023-12-14T13:27:44;6.90;99.90
31765;DHT22;18338;53.240;8.798;2023-12-14T13:30:11;6.90;99.90
31765;DHT22;18338;53.240;8.798;2023-12-14T13:32:44;6.80;99.90
31765;DHT22;18338;53.240;8.798;2023-12-14T13:35:11;6.70;99.90
31765;DHT22;18338;53.240;8.798;2023-12-14T13:37:38;6.70;99.90
31765;DHT22;18338;53.240;8.798;2023-12-14T13:40:06;6.70;99.90
31765;DHT22;18338;53.240;8.798;2023-12-14T13:42:33;6.70;99.90
31765;DHT22;18338;53.240;8.798;2023-12-14T13:45:07;6.70;99.90
31765;DHT22;18338;53.240;8.798;2023-12-14T13:47:34;6.70;99.90
31765;DHT22;18338;53.240;8.798;2023-12-14T13:50:01;6.70;99.90
31765;DHT22;18338;53.240;8.798;2023-12-14T13:52:30;6.70;99.90
31765;DHT22;18338;53.240;8.798;2023-12-14T13:54:57;6.70;99.90
31765;DHT22;18338;53.240;8.798;2023-12-14T13:57:25;6.60;99.90
31765;DHT22;18338;53.240;8.798;2023-12-14T13:59:54;6.50;99.90
31765;DHT22;18338;53.240;8.798;2023-12-14T14:02:20;6.40;99.90
31765;DHT22;18338;53.240;8.798;2023-12-14T14:04:47;6.30;99.90
31765;DHT22;18338;53.240;8.798;2023-12-14T14:07:16;6.20;99.90
31765;DHT22;18338;53.240;8.798;2023-12-14T14:09:42;6.20;99.90
31765;DHT22;18338;53.240;8.798;2023-12-14T14:12:09;6.30;99.90
31765;DHT22;18338;53.240;8.798;2023-12-14T14:14:36;6.20;99.90
31765;DHT22;18338;53.240;8.798;2023-12-14T14:17:03;6.20;99.90
31765;DHT22;18338;53.240;8.798;2023-12-14T14:19:30;6.20;99.90
31765;DHT22;18338;53.240;8.798;2023-12-14T14:21:56;6.20;99.90
31765;DHT22;18338;53.240;8.798;2023-12-14T14:24:23;6.00;99.90
31765;DHT22;18338;53.240;8.798;2023-12-14T14:26:50;5.90;99.90
31765;DHT22;18338;53.240;8.798;2023-12-14T14:29:17;5.80;99.90
31765;DHT22;18338;53.240;8.798;2023-12-14T14:31:45;5.60;99.90
31765;DHT22;18338;53.240;8.798;2023-12-14T14:34:12;5.40;99.90
31765;DHT22;18338;53.240;8.798;2023-12-14T14:36:39;5.20;99.90
31765;DHT22;18338;53.240;8.798;2023-12-14T14:39:06;4.90;99.90
31765;DHT22;18338;53.240;8.798;2023-12-14T14:41:32;4.70;99.90
31765;DHT22;18338;53.240;8.798;2023-12-14T14:43:59;4.60;99.90
31765;DHT22;18338;53.240;8.798;2023-12-14T14:46:26;4.60;99.90
31765;DHT22;18338;53.240;8.798;2023-12-14T14:48:53;4.60;99.90
31765;DHT22;18338;53.240;8.798;2023-12-14T14:51:20;4.70;99.90
31765;DHT22;18338;53.240;8.798;2023-12-14T14:53:46;4.80;99.90
31765;DHT22;18338;53.240;8.798;2023-12-14T14:56:14;4.80;99.90
31765;DHT22;18338;53.240;8.798;2023-12-14T14:58:41;4.80;99.90
31765;DHT22;18338;53.240;8.798;2023-12-14T15:01:12;4.80;99.90
31765;DHT22;18338;53.240;8.798;2023-12-14T15:03:39;4.80;99.90
31765;DHT22;18338;53.240;8.798;2023-12-14T15:06:06;4.80;99.90
31765;DHT22;18338;53.240;8.798;2023-12-14T15:08:33;4.80;99.90
31765;DHT22;18338;53.240;8.798;2023-12-14T15:10:59;4.70;99.90
31765;DHT22;18338;53.240;8.798;2023-12-14T15:13:26;4.50;99.90
31765;DHT22;18338;53.240;8.798;2023-12-14T15:15:55;4.30;99.90
31765;DHT22;18338;53.240;8.798;2023-12-14T15:18:22;4.20;99.90
31765;DHT22;18338;53.240;8.798;2023-12-14T15:20:49;4.10;99.90
31765;DHT22;18338;53.240;8.798;2023-12-14T15:23:18;4.00;99.90
31765;DHT22;18338;53.240;8.798;2023-12-14T15:25:45;4.00;99.90
31765;DHT22;18338;53.240;8.798;2023-12-14T15:28:11;4.00;99.90
31765;DHT22;18338;53.240;8.798;2023-12-14T15:30:38;4.00;99.90
31765;DHT22;18338;53.240;8.798;2023-12-14T15:33:05;3.90;99.90
31765;DHT22;18338;53.240;8.798;2023-12-14T15:35:35;3.90;99.90
31765;DHT22;18338;53.240;8.798;2023-12-14T15:38:02;3.90;99.90
31765;DHT22;18338;53.240;8.798;2023-12-14T15:40:29;3.80;99.90
31765;DHT22;18338;53.240;8.798;2023-12-14T15:42:56;3.80;99.90
31765;DHT22;18338;53.240;8.798;2023-12-14T15:45:23;3.80;99.90
31765;DHT22;18338;53.240;8.798;2023-12-14T15:47:50;3.80;99.90
31765;DHT22;18338;53.240;8.798;2023-12-14T15:50:17;3.80;99.90
31765;DHT22;18338;53.240;8.798;2023-12-14T15:52:44;3.80;99.90
31765;DHT22;18338;53.240;8.798;2023-12-14T15:55:11;3.70;99.90
31765;DHT22;18338;53.240;8.798;2023-12-14T15:57:37;3.70;99.90